PWSweather.com
Personal Weather Stations
Station Observations
BARMORENO
El Ranal, Torre Del CampoES 23640

El RanalTorre Del CampoES 23640

Lat: 37.7683675, Lon: -3.9027072

Elevation: 2198.162

Station Type: PCE-FWS 20

http://www.bartolomemoreno.com/tiempo

Latest ConditionsUpdated 11:30:00 PM GMT+01:01 Sunday, Jan 19, 2020
Currently Today's Max Today's Min Today's Average
Temperature 38.8°F3.8°C 52.9°F11.6°C 38.8°F3.8°C 45.3°F7.4°C
Dew Point 38.6°F3.7°C 52.9°F11.6°C 38.6°F3.7°C 44.3°F6.8°C
Winds 7.9 mph NE12.7 kmh NE 15.4 mph -24.8 kmh - - 5.3 mph 8.5 kmh
Wind Gusts 13.0 mph20.9 kmh 28.2 mph45.4 kmh - -
Humidity 99% 100% 81% 96%
Pressure 30.10 in1019.3 mb 30.25 in1024.4 mb 30.07 in1018.3 mb -
Precipitation - 0.27 in6.9 mm - -
Hour Temp Dew Point Humidity Winds Wind Gusts Pressure Precip Precip Rate Daily Precip Total
11:30 PM 38.8°F3.8°C 38.6°F3.7°C 99% 7.9 mph NE12.7 kmh NE 13.0 mph20.9 kmh 30.10 in1019.3 mb 0.00 in0.0 mm 0.00 in0.0 mm 0.27 in6.9 mm
11:25 PM 38.8°F3.8°C 38.6°F3.7°C 99% 8.1 mph NE13.0 kmh NE 15.2 mph24.5 kmh 30.10 in1019.3 mb 0.00 in0.0 mm 0.00 in0.0 mm 0.27 in6.9 mm
11:20 PM 38.8°F3.8°C 38.6°F3.7°C 99% 8.6 mph E13.8 kmh E 15.2 mph24.5 kmh 30.09 in1019.0 mb 0.00 in0.0 mm 0.00 in0.0 mm 0.27 in6.9 mm
11:15 PM 38.8°F3.8°C 38.6°F3.7°C 99% 9.3 mph E15.0 kmh E 19.7 mph31.7 kmh 30.09 in1019.0 mb 0.00 in0.0 mm 0.00 in0.0 mm 0.27 in6.9 mm
11:10 PM 38.8°F3.8°C 38.6°F3.7°C 99% 10.6 mph E17.1 kmh E 19.7 mph31.7 kmh 30.10 in1019.3 mb 0.00 in0.0 mm 0.00 in0.0 mm 0.27 in6.9 mm
11:05 PM 38.8°F3.8°C 38.6°F3.7°C 99% 11.3 mph E18.2 kmh E 19.7 mph31.7 kmh 30.10 in1019.3 mb 0.00 in0.0 mm 0.00 in0.0 mm 0.27 in6.9 mm
11:00 PM 39.0°F3.9°C 38.8°F3.8°C 99% 10.9 mph ENE17.5 kmh ENE 16.8 mph27.0 kmh 30.10 in1019.3 mb 0.00 in0.0 mm 0.00 in0.0 mm 0.27 in6.9 mm
10:55 PM 39.0°F3.9°C 38.8°F3.8°C 99% 9.5 mph E15.3 kmh E 16.8 mph27.0 kmh 30.10 in1019.3 mb 0.00 in0.0 mm 0.00 in0.0 mm 0.27 in6.9 mm
10:50 PM 39.2°F4.0°C 38.9°F3.8°C 99% 8.3 mph E13.4 kmh E 14.5 mph23.3 kmh 30.10 in1019.3 mb 0.00 in0.0 mm 0.00 in0.0 mm 0.27 in6.9 mm
10:45 PM 39.0°F3.9°C 38.8°F3.8°C 99% 9.4 mph E15.1 kmh E 19.0 mph30.6 kmh 30.10 in1019.3 mb 0.00 in0.0 mm 0.00 in0.0 mm 0.27 in6.9 mm
10:40 PM 39.0°F3.9°C 38.8°F3.8°C 99% 10.2 mph E16.4 kmh E 19.7 mph31.7 kmh 30.10 in1019.3 mb 0.00 in0.0 mm 0.00 in0.0 mm 0.27 in6.9 mm
10:35 PM 39.0°F3.9°C 38.8°F3.8°C 99% 9.7 mph E15.6 kmh E 19.7 mph31.7 kmh 30.10 in1019.3 mb 0.00 in0.0 mm 0.00 in0.0 mm 0.27 in6.9 mm
10:25 PM 39.0°F3.9°C 38.8°F3.8°C 99% 7.2 mph E11.6 kmh E 19.0 mph30.6 kmh 30.10 in1019.3 mb 0.00 in0.0 mm 0.00 in0.0 mm 0.27 in6.9 mm
10:20 PM 39.0°F3.9°C 38.8°F3.8°C 99% 8.5 mph E13.7 kmh E 19.0 mph30.6 kmh 30.10 in1019.3 mb 0.00 in0.0 mm 0.00 in0.0 mm 0.27 in6.9 mm
10:15 PM 39.0°F3.9°C 38.8°F3.8°C 99% 7.8 mph E12.6 kmh E 14.5 mph23.3 kmh 30.10 in1019.3 mb 0.00 in0.0 mm 0.00 in0.0 mm 0.27 in6.9 mm
10:10 PM 38.8°F3.8°C 38.6°F3.7°C 99% 6.9 mph ESE11.1 kmh ESE 13.0 mph20.9 kmh 30.10 in1019.3 mb 0.00 in0.0 mm 0.00 in0.0 mm 0.27 in6.9 mm
09:55 PM 38.8°F3.8°C 38.6°F3.7°C 99% 9.1 mph E14.6 kmh E 20.6 mph33.2 kmh 30.09 in1019.0 mb 0.00 in0.0 mm 0.00 in0.0 mm 0.27 in6.9 mm
09:10 PM 38.8°F3.8°C 38.6°F3.7°C 99% 10.0 mph E16.1 kmh E 19.0 mph30.6 kmh 30.08 in1018.6 mb 0.06 in1.5 mm 0.00 in0.0 mm 0.27 in6.9 mm
08:55 PM 39.0°F3.9°C 38.8°F3.8°C 99% 13.1 mph E21.1 kmh E 22.1 mph35.6 kmh 30.09 in1019.0 mb 0.10 in2.5 mm 0.06 in1.5 mm 0.27 in6.9 mm
08:45 PM 39.0°F3.9°C 38.8°F3.8°C 99% 10.5 mph E16.9 kmh E 22.1 mph35.6 kmh 30.09 in1019.0 mb 0.09 in2.3 mm 0.00 in0.0 mm 0.26 in6.6 mm
08:35 PM 39.2°F4.0°C 38.9°F3.8°C 99% 11.7 mph E18.8 kmh E 25.1 mph40.4 kmh 30.09 in1019.0 mb 0.11 in2.8 mm 0.06 in1.5 mm 0.26 in6.6 mm
08:25 PM 39.2°F4.0°C 38.9°F3.8°C 99% 13.2 mph E21.2 kmh E 28.2 mph45.4 kmh 30.09 in1019.0 mb 0.10 in2.5 mm 0.00 in0.0 mm 0.24 in6.1 mm
08:20 PM 39.4°F4.1°C 39.1°F3.9°C 99% 15.4 mph E24.8 kmh E 28.2 mph45.4 kmh 30.09 in1019.0 mb 0.10 in2.5 mm 0.00 in0.0 mm 0.24 in6.1 mm
08:15 PM 39.6°F4.2°C 39.3°F4.1°C 99% 12.3 mph ENE19.8 kmh ENE 28.2 mph45.4 kmh 30.09 in1019.0 mb 0.10 in2.5 mm 0.18 in4.6 mm 0.23 in5.8 mm
08:05 PM 40.5°F4.7°C 40.2°F4.6°C 99% 7.6 mph E12.2 kmh E 20.6 mph33.2 kmh 30.09 in1019.0 mb 0.07 in1.8 mm 0.00 in0.0 mm 0.18 in4.6 mm
08:00 PM 40.5°F4.7°C 40.2°F4.6°C 99% 11.4 mph E18.3 kmh E 20.6 mph33.2 kmh 30.09 in1019.0 mb 0.07 in1.8 mm 0.01 in0.3 mm 0.18 in4.6 mm
07:55 PM 40.8°F4.9°C 40.6°F4.8°C 99% 14.5 mph E23.3 kmh E 20.6 mph33.2 kmh 30.09 in1019.0 mb 0.06 in1.5 mm 0.00 in0.0 mm 0.17 in4.3 mm
07:50 PM 40.8°F4.9°C 40.6°F4.8°C 99% 12.8 mph ENE20.6 kmh ENE 20.6 mph33.2 kmh 30.09 in1019.0 mb 0.06 in1.5 mm 0.00 in0.0 mm 0.17 in4.3 mm
07:40 PM 41.0°F5.0°C 40.7°F4.8°C 99% 5.5 mph WNW8.9 kmh WNW 18.3 mph29.5 kmh 30.09 in1019.0 mb 0.07 in1.8 mm 0.00 in0.0 mm 0.16 in4.1 mm
07:35 PM 41.5°F5.3°C 41.3°F5.2°C 99% 5.4 mph WNW8.7 kmh WNW 7.6 mph12.2 kmh 30.09 in1019.0 mb 0.07 in1.8 mm 0.00 in0.0 mm 0.14 in3.6 mm
07:30 PM 41.5°F5.3°C 41.3°F5.2°C 99% 5.6 mph WSW9.0 kmh WSW 10.7 mph17.2 kmh 30.09 in1019.0 mb 0.07 in1.8 mm 0.00 in0.0 mm 0.14 in3.6 mm
07:15 PM 41.5°F5.3°C 41.3°F5.2°C 99% 10.4 mph E16.7 kmh E 13.6 mph21.9 kmh 30.09 in1019.0 mb 0.09 in2.3 mm 0.24 in6.1 mm 0.13 in3.3 mm
07:10 PM 41.5°F5.3°C 41.3°F5.2°C 99% 10.6 mph E17.1 kmh E 13.6 mph21.9 kmh 30.09 in1019.0 mb 0.07 in1.8 mm 0.00 in0.0 mm 0.11 in2.8 mm
07:05 PM 41.5°F5.3°C 41.3°F5.2°C 99% 8.8 mph ENE14.2 kmh ENE 13.6 mph21.9 kmh 30.09 in1019.0 mb 0.07 in1.8 mm 0.00 in0.0 mm 0.11 in2.8 mm
06:50 PM 41.7°F5.4°C 40.9°F4.9°C 97% 9.3 mph NE15.0 kmh NE 15.9 mph25.6 kmh 30.09 in1019.0 mb 0.07 in1.8 mm 0.00 in0.0 mm 0.11 in2.8 mm
06:45 PM 41.9°F5.5°C 40.6°F4.8°C 95% 7.1 mph NE11.4 kmh NE 14.5 mph23.3 kmh 30.08 in1018.6 mb 0.07 in1.8 mm 0.12 in3.0 mm 0.10 in2.5 mm
06:40 PM 42.1°F5.6°C 40.8°F4.9°C 95% 10.2 mph ENE16.4 kmh ENE 15.2 mph24.5 kmh 30.09 in1019.0 mb 0.06 in1.5 mm 0.12 in3.0 mm 0.09 in2.3 mm
06:30 PM 42.3°F5.7°C 40.4°F4.7°C 93% 9.1 mph E14.6 kmh E 16.8 mph27.0 kmh 30.08 in1018.6 mb 0.04 in1.0 mm 0.12 in3.0 mm 0.07 in1.8 mm
06:25 PM 42.4°F5.8°C 40.6°F4.8°C 93% 10.1 mph ENE16.3 kmh ENE 19.7 mph31.7 kmh 30.08 in1018.6 mb 0.03 in0.8 mm 0.24 in6.1 mm 0.06 in1.5 mm
06:20 PM 42.6°F5.9°C 40.5°F4.7°C 92% 12.6 mph ENE20.3 kmh ENE 22.1 mph35.6 kmh 30.08 in1018.6 mb 0.01 in0.3 mm 0.00 in0.0 mm 0.04 in1.0 mm
06:15 PM 42.8°F6.0°C 40.1°F4.5°C 90% 12.4 mph ENE20.0 kmh ENE 22.1 mph35.6 kmh 30.08 in1018.6 mb 0.01 in0.3 mm 0.00 in0.0 mm 0.04 in1.0 mm
06:10 PM 43.0°F6.1°C 40.0°F4.4°C 89% 11.1 mph NE17.9 kmh NE 19.7 mph31.7 kmh 30.08 in1018.6 mb 0.01 in0.3 mm 0.00 in0.0 mm 0.04 in1.0 mm
06:05 PM 43.7°F6.5°C 40.4°F4.7°C 88% 11.8 mph NE19.0 kmh NE 21.3 mph34.3 kmh 30.08 in1018.6 mb 0.01 in0.3 mm 0.00 in0.0 mm 0.04 in1.0 mm
06:00 PM 43.7°F6.5°C 40.4°F4.7°C 88% 13.6 mph NE21.9 kmh NE 22.1 mph35.6 kmh 30.08 in1018.6 mb 0.01 in0.3 mm 0.00 in0.0 mm 0.04 in1.0 mm
05:55 PM 43.9°F6.6°C 40.9°F4.9°C 89% 10.5 mph NE16.9 kmh NE 22.1 mph35.6 kmh 30.08 in1018.6 mb 0.01 in0.3 mm 0.00 in0.0 mm 0.04 in1.0 mm
05:50 PM 44.2°F6.8°C 41.2°F5.1°C 89% 6.4 mph ENE10.3 kmh ENE 17.4 mph28.0 kmh 30.08 in1018.6 mb 0.01 in0.3 mm 0.12 in3.0 mm 0.04 in1.0 mm
05:45 PM 44.4°F6.9°C 41.1°F5.1°C 88% 5.5 mph ENE8.9 kmh ENE 10.7 mph17.2 kmh 30.08 in1018.6 mb 0.00 in0.0 mm 0.00 in0.0 mm 0.03 in0.8 mm
05:40 PM 44.6°F7.0°C 40.4°F4.7°C 85% 6.3 mph E10.1 kmh E 12.1 mph19.5 kmh 30.08 in1018.6 mb 0.00 in0.0 mm 0.00 in0.0 mm 0.03 in0.8 mm
05:35 PM 44.8°F7.1°C 40.2°F4.6°C 84% 7.7 mph ENE12.4 kmh ENE 12.1 mph19.5 kmh 30.07 in1018.3 mb 0.00 in0.0 mm 0.00 in0.0 mm 0.03 in0.8 mm
05:30 PM 45.0°F7.2°C 40.1°F4.5°C 83% 8.4 mph ENE13.5 kmh ENE 13.0 mph20.9 kmh 30.07 in1018.3 mb 0.00 in0.0 mm 0.00 in0.0 mm 0.03 in0.8 mm
05:25 PM 45.1°F7.3°C 40.0°F4.4°C 82% 9.4 mph ENE15.1 kmh ENE 14.5 mph23.3 kmh 30.07 in1018.3 mb 0.00 in0.0 mm 0.00 in0.0 mm 0.03 in0.8 mm
05:20 PM 45.3°F7.4°C 39.8°F4.3°C 81% 9.2 mph NE14.8 kmh NE 15.9 mph25.6 kmh 30.07 in1018.3 mb 0.00 in0.0 mm 0.00 in0.0 mm 0.03 in0.8 mm
05:15 PM 45.3°F7.4°C 39.8°F4.3°C 81% 8.9 mph ENE14.3 kmh ENE 15.9 mph25.6 kmh 30.07 in1018.3 mb 0.00 in0.0 mm 0.00 in0.0 mm 0.03 in0.8 mm
05:10 PM 45.5°F7.5°C 40.3°F4.6°C 82% 7.7 mph NE12.4 kmh NE 14.5 mph23.3 kmh 30.07 in1018.3 mb 0.00 in0.0 mm 0.00 in0.0 mm 0.03 in0.8 mm
05:05 PM 45.5°F7.5°C 40.3°F4.6°C 82% 7.2 mph NE11.6 kmh NE 13.6 mph21.9 kmh 30.07 in1018.3 mb 0.00 in0.0 mm 0.00 in0.0 mm 0.03 in0.8 mm
05:00 PM 45.5°F7.5°C 40.3°F4.6°C 82% 8.0 mph ENE12.9 kmh ENE 15.2 mph24.5 kmh 30.07 in1018.3 mb 0.00 in0.0 mm 0.00 in0.0 mm 0.03 in0.8 mm
04:55 PM 45.5°F7.5°C 40.3°F4.6°C 82% 8.5 mph NE13.7 kmh NE 15.2 mph24.5 kmh 30.07 in1018.3 mb 0.00 in0.0 mm 0.00 in0.0 mm 0.03 in0.8 mm
04:50 PM 45.5°F7.5°C 40.3°F4.6°C 82% 9.6 mph NE15.4 kmh NE 15.2 mph24.5 kmh 30.07 in1018.3 mb 0.00 in0.0 mm 0.00 in0.0 mm 0.03 in0.8 mm
04:45 PM 45.5°F7.5°C 40.3°F4.6°C 82% 10.0 mph NE16.1 kmh NE 15.2 mph24.5 kmh 30.07 in1018.3 mb 0.00 in0.0 mm 0.00 in0.0 mm 0.03 in0.8 mm
04:40 PM 45.5°F7.5°C 40.3°F4.6°C 82% 9.7 mph ENE15.6 kmh ENE 15.2 mph24.5 kmh 30.07 in1018.3 mb 0.00 in0.0 mm 0.00 in0.0 mm 0.03 in0.8 mm
04:35 PM 45.3°F7.4°C 40.2°F4.6°C 82% 8.8 mph ENE14.2 kmh ENE 14.5 mph23.3 kmh 30.07 in1018.3 mb 0.00 in0.0 mm 0.00 in0.0 mm 0.03 in0.8 mm
04:30 PM 45.3°F7.4°C 40.2°F4.6°C 82% 8.3 mph ENE13.4 kmh ENE 14.5 mph23.3 kmh 30.07 in1018.3 mb 0.00 in0.0 mm 0.00 in0.0 mm 0.03 in0.8 mm
04:25 PM 45.1°F7.3°C 40.0°F4.4°C 82% 7.2 mph NE11.6 kmh NE 15.9 mph25.6 kmh 30.07 in1018.3 mb 0.00 in0.0 mm 0.00 in0.0 mm 0.03 in0.8 mm
04:20 PM 45.1°F7.3°C 40.0°F4.4°C 82% 7.8 mph NE12.6 kmh NE 15.9 mph25.6 kmh 30.07 in1018.3 mb 0.00 in0.0 mm 0.00 in0.0 mm 0.03 in0.8 mm
04:10 PM 45.1°F7.3°C 40.3°F4.6°C 83% 9.4 mph NE15.1 kmh NE 16.8 mph27.0 kmh 30.08 in1018.6 mb 0.00 in0.0 mm 0.00 in0.0 mm 0.03 in0.8 mm
04:00 PM 45.1°F7.3°C 40.6°F4.8°C 84% 8.3 mph ENE13.4 kmh ENE 14.5 mph23.3 kmh 30.08 in1018.6 mb 0.00 in0.0 mm 0.00 in0.0 mm 0.03 in0.8 mm
03:55 PM 45.1°F7.3°C 40.9°F4.9°C 85% 8.1 mph ENE13.0 kmh ENE 13.6 mph21.9 kmh 30.08 in1018.6 mb 0.00 in0.0 mm 0.00 in0.0 mm 0.03 in0.8 mm
03:50 PM 45.0°F7.2°C 41.0°F5.0°C 86% 8.7 mph NE14.0 kmh NE 12.1 mph19.5 kmh 30.08 in1018.6 mb 0.00 in0.0 mm 0.00 in0.0 mm 0.03 in0.8 mm
03:45 PM 44.8°F7.1°C 41.4°F5.2°C 88% 10.1 mph NNE16.3 kmh NNE 16.8 mph27.0 kmh 30.08 in1018.6 mb 0.00 in0.0 mm 0.00 in0.0 mm 0.03 in0.8 mm
03:40 PM 44.8°F7.1°C 41.4°F5.2°C 88% 8.8 mph NE14.2 kmh NE 16.8 mph27.0 kmh 30.08 in1018.6 mb 0.00 in0.0 mm 0.00 in0.0 mm 0.03 in0.8 mm
03:35 PM 44.8°F7.1°C 41.7°F5.4°C 89% 7.3 mph NNE11.7 kmh NNE 15.2 mph24.5 kmh 30.08 in1018.6 mb 0.00 in0.0 mm 0.00 in0.0 mm 0.03 in0.8 mm
03:30 PM 44.8°F7.1°C 41.7°F5.4°C 89% 7.3 mph NNE11.7 kmh NNE 13.0 mph20.9 kmh 30.08 in1018.6 mb 0.00 in0.0 mm 0.00 in0.0 mm 0.03 in0.8 mm
03:25 PM 44.6°F7.0°C 41.9°F5.5°C 90% 6.9 mph NE11.1 kmh NE 13.0 mph20.9 kmh 30.08 in1018.6 mb 0.00 in0.0 mm 0.00 in0.0 mm 0.03 in0.8 mm
03:20 PM 44.4°F6.9°C 42.2°F5.7°C 92% 7.1 mph NE11.4 kmh NE 12.1 mph19.5 kmh 30.08 in1018.6 mb 0.00 in0.0 mm 0.00 in0.0 mm 0.03 in0.8 mm
03:15 PM 44.2°F6.8°C 42.3°F5.7°C 93% 7.2 mph NNE11.6 kmh NNE 11.4 mph18.3 kmh 30.08 in1018.6 mb 0.00 in0.0 mm 0.00 in0.0 mm 0.03 in0.8 mm
03:10 PM 44.2°F6.8°C 42.3°F5.7°C 93% 6.7 mph NE10.8 kmh NE 11.4 mph18.3 kmh 30.09 in1019.0 mb 0.00 in0.0 mm 0.00 in0.0 mm 0.03 in0.8 mm
03:05 PM 44.2°F6.8°C 42.3°F5.7°C 93% 7.8 mph NNE12.6 kmh NNE 12.1 mph19.5 kmh 30.08 in1018.6 mb 0.00 in0.0 mm 0.00 in0.0 mm 0.03 in0.8 mm
03:00 PM 44.2°F6.8°C 42.6°F5.9°C 94% 9.1 mph N14.6 kmh N 13.6 mph21.9 kmh 30.09 in1019.0 mb 0.00 in0.0 mm 0.00 in0.0 mm 0.03 in0.8 mm
02:50 PM 44.4°F6.9°C 43.4°F6.3°C 96% 8.3 mph NE13.4 kmh NE 12.1 mph19.5 kmh 30.08 in1018.6 mb 0.00 in0.0 mm 0.00 in0.0 mm 0.03 in0.8 mm
02:40 PM 44.2°F6.8°C 44.2°F6.8°C 100% 7.1 mph NNE11.4 kmh NNE 13.0 mph20.9 kmh 30.09 in1019.0 mb 0.00 in0.0 mm 0.00 in0.0 mm 0.03 in0.8 mm
02:00 PM 43.9°F6.6°C 43.9°F6.6°C 100% 4.0 mph NE6.4 kmh NE 6.9 mph11.1 kmh 30.10 in1019.3 mb 0.01 in0.3 mm 0.00 in0.0 mm 0.03 in0.8 mm
01:55 PM 43.5°F6.4°C 43.5°F6.4°C 100% 4.3 mph N6.9 kmh N 8.3 mph13.4 kmh 30.10 in1019.3 mb 0.01 in0.3 mm 0.00 in0.0 mm 0.03 in0.8 mm
01:50 PM 43.5°F6.4°C 43.5°F6.4°C 100% 4.1 mph N6.6 kmh N 8.3 mph13.4 kmh 30.10 in1019.3 mb 0.01 in0.3 mm 0.00 in0.0 mm 0.03 in0.8 mm
01:45 PM 43.5°F6.4°C 43.5°F6.4°C 100% 3.2 mph NW5.1 kmh NW 8.3 mph13.4 kmh 30.10 in1019.3 mb 0.01 in0.3 mm 0.00 in0.0 mm 0.03 in0.8 mm
01:40 PM 43.7°F6.5°C 43.7°F6.5°C 100% 4.0 mph NNW6.4 kmh NNW 10.7 mph17.2 kmh 30.10 in1019.3 mb 0.01 in0.3 mm 0.00 in0.0 mm 0.03 in0.8 mm
01:35 PM 43.7°F6.5°C 43.7°F6.5°C 100% 6.2 mph N10.0 kmh N 15.9 mph25.6 kmh 30.11 in1019.6 mb 0.01 in0.3 mm 0.00 in0.0 mm 0.03 in0.8 mm
01:30 PM 43.9°F6.6°C 43.9°F6.6°C 100% 7.9 mph N12.7 kmh N 15.9 mph25.6 kmh 30.11 in1019.6 mb 0.01 in0.3 mm 0.12 in3.0 mm 0.03 in0.8 mm
01:25 PM 44.1°F6.7°C 43.3°F6.3°C 97% 8.2 mph N13.2 kmh N 15.9 mph25.6 kmh 30.11 in1019.6 mb 0.00 in0.0 mm 0.00 in0.0 mm 0.01 in0.3 mm
01:20 PM 44.4°F6.9°C 43.4°F6.3°C 96% 8.4 mph N13.5 kmh N 12.1 mph19.5 kmh 30.11 in1019.6 mb 0.00 in0.0 mm 0.00 in0.0 mm 0.01 in0.3 mm
01:10 PM 45.1°F7.3°C 43.2°F6.2°C 93% 5.8 mph N9.3 kmh N 11.4 mph18.3 kmh 30.11 in1019.6 mb 0.00 in0.0 mm 0.00 in0.0 mm 0.01 in0.3 mm
01:05 PM 45.5°F7.5°C 43.3°F6.3°C 92% 5.5 mph NNW8.9 kmh NNW 10.7 mph17.2 kmh 30.11 in1019.6 mb 0.00 in0.0 mm 0.00 in0.0 mm 0.01 in0.3 mm
12:55 PM 45.9°F7.7°C 43.4°F6.3°C 91% 4.7 mph N7.6 kmh N 9.2 mph14.8 kmh 30.11 in1019.6 mb 0.01 in0.3 mm 0.00 in0.0 mm 0.01 in0.3 mm
12:45 PM 46.0°F7.8°C 43.6°F6.4°C 91% 3.4 mph N5.5 kmh N 6.0 mph9.7 kmh 30.12 in1020.0 mb 0.01 in0.3 mm 0.00 in0.0 mm 0.01 in0.3 mm
12:40 PM 46.0°F7.8°C 43.6°F6.4°C 91% 3.7 mph NNW6.0 kmh NNW 7.6 mph12.2 kmh 30.12 in1020.0 mb 0.01 in0.3 mm 0.00 in0.0 mm 0.01 in0.3 mm
12:35 PM 46.2°F7.9°C 44.0°F6.7°C 92% 3.7 mph N6.0 kmh N 7.6 mph12.2 kmh 30.12 in1020.0 mb 0.01 in0.3 mm 0.00 in0.0 mm 0.01 in0.3 mm
12:30 PM 46.4°F8.0°C 43.9°F6.6°C 91% 4.2 mph N6.8 kmh N 7.6 mph12.2 kmh 30.13 in1020.3 mb 0.01 in0.3 mm 0.00 in0.0 mm 0.01 in0.3 mm
12:25 PM 46.4°F8.0°C 44.2°F6.8°C 92% 4.6 mph N7.4 kmh N 7.6 mph12.2 kmh 30.13 in1020.3 mb 0.01 in0.3 mm 0.00 in0.0 mm 0.01 in0.3 mm
12:20 PM 46.4°F8.0°C 44.2°F6.8°C 92% 4.8 mph N7.7 kmh N 8.3 mph13.4 kmh 30.13 in1020.3 mb 0.01 in0.3 mm 0.00 in0.0 mm 0.01 in0.3 mm
12:15 PM 46.6°F8.1°C 44.9°F7.2°C 94% 5.0 mph N8.0 kmh N 8.3 mph13.4 kmh 30.14 in1020.7 mb 0.01 in0.3 mm 0.00 in0.0 mm 0.01 in0.3 mm
12:10 PM 46.8°F8.2°C 45.4°F7.4°C 95% 4.4 mph N7.1 kmh N 8.3 mph13.4 kmh 30.14 in1020.7 mb 0.01 in0.3 mm 0.00 in0.0 mm 0.01 in0.3 mm
12:05 PM 46.6°F8.1°C 45.8°F7.7°C 97% 4.0 mph N6.4 kmh N 8.3 mph13.4 kmh 30.14 in1020.7 mb 0.01 in0.3 mm 0.00 in0.0 mm 0.01 in0.3 mm
12:00 PM 46.6°F8.1°C 45.8°F7.7°C 97% 3.4 mph N5.5 kmh N 8.3 mph13.4 kmh 30.14 in1020.7 mb 0.01 in0.3 mm 0.01 in0.3 mm 0.01 in0.3 mm
11:55 AM 46.4°F8.0°C 46.1°F7.8°C 99% 3.2 mph N5.1 kmh N 5.4 mph8.7 kmh 30.14 in1020.7 mb 0.00 in0.0 mm 0.00 in0.0 mm 0.03 in0.8 mm
11:50 AM 46.2°F7.9°C 45.4°F7.4°C 97% 3.0 mph NNE4.8 kmh NNE 5.4 mph8.7 kmh 30.14 in1020.7 mb 0.00 in0.0 mm 0.00 in0.0 mm 0.03 in0.8 mm
11:45 AM 46.2°F7.9°C 45.4°F7.4°C 97% 1.9 mph NNE3.1 kmh NNE 5.4 mph8.7 kmh 30.14 in1020.7 mb 0.00 in0.0 mm 0.00 in0.0 mm 0.03 in0.8 mm
11:40 AM 45.9°F7.7°C 45.1°F7.3°C 97% 2.2 mph NNE3.5 kmh NNE 4.5 mph7.2 kmh 30.14 in1020.7 mb 0.00 in0.0 mm 0.00 in0.0 mm 0.03 in0.8 mm
11:35 AM 45.9°F7.7°C 45.1°F7.3°C 97% 2.2 mph NNE3.5 kmh NNE 4.5 mph7.2 kmh 30.14 in1020.7 mb 0.00 in0.0 mm 0.00 in0.0 mm 0.03 in0.8 mm
11:30 AM 46.0°F7.8°C 45.2°F7.3°C 97% 1.9 mph N3.1 kmh N 3.1 mph5.0 kmh 30.14 in1020.7 mb 0.00 in0.0 mm 0.00 in0.0 mm 0.03 in0.8 mm
11:25 AM 46.2°F7.9°C 45.4°F7.4°C 97% 1.3 mph N2.1 kmh N 3.1 mph5.0 kmh 30.14 in1020.7 mb 0.00 in0.0 mm 0.00 in0.0 mm 0.03 in0.8 mm
11:20 AM 46.6°F8.1°C 46.3°F7.9°C 99% 0.5 mph NNE0.8 kmh NNE 3.1 mph5.0 kmh 30.14 in1020.7 mb 0.00 in0.0 mm 0.00 in0.0 mm 0.03 in0.8 mm
11:15 AM 46.2°F7.9°C 45.4°F7.4°C 97% 0.3 mph NE0.5 kmh NE 2.2 mph3.5 kmh 30.14 in1020.7 mb 0.00 in0.0 mm 0.00 in0.0 mm 0.03 in0.8 mm
11:10 AM 45.9°F7.7°C 45.1°F7.3°C 97% 0.4 mph W0.6 kmh W 2.2 mph3.5 kmh 30.14 in1020.7 mb 0.00 in0.0 mm 0.00 in0.0 mm 0.03 in0.8 mm
11:05 AM 45.1°F7.3°C 44.3°F6.8°C 97% 0.9 mph W1.4 kmh W 3.1 mph5.0 kmh 30.14 in1020.7 mb 0.00 in0.0 mm 0.00 in0.0 mm 0.03 in0.8 mm
11:00 AM 45.1°F7.3°C 44.3°F6.8°C 97% 1.2 mph WNW1.9 kmh WNW 3.1 mph5.0 kmh 30.14 in1020.7 mb 0.00 in0.0 mm 0.00 in0.0 mm 0.03 in0.8 mm
10:40 AM 45.9°F7.7°C 45.1°F7.3°C 97% 1.0 mph W1.6 kmh W 2.2 mph3.5 kmh 30.14 in1020.7 mb 0.00 in0.0 mm 0.00 in0.0 mm 0.03 in0.8 mm
10:30 AM 44.2°F6.8°C 44.2°F6.8°C 100% 0.8 mph W1.3 kmh W 3.1 mph5.0 kmh 30.13 in1020.3 mb 0.00 in0.0 mm 0.00 in0.0 mm 0.03 in0.8 mm
10:25 AM 44.2°F6.8°C 44.2°F6.8°C 100% 1.3 mph WNW2.1 kmh WNW 3.1 mph5.0 kmh 30.13 in1020.3 mb 0.00 in0.0 mm 0.00 in0.0 mm 0.03 in0.8 mm
10:20 AM 44.1°F6.7°C 44.1°F6.7°C 100% 1.9 mph WNW3.1 kmh WNW 3.8 mph6.1 kmh 30.13 in1020.3 mb 0.00 in0.0 mm 0.00 in0.0 mm 0.03 in0.8 mm
10:10 AM 44.1°F6.7°C 44.1°F6.7°C 100% 1.4 mph NE2.3 kmh NE 3.8 mph6.1 kmh 30.13 in1020.3 mb 0.00 in0.0 mm 0.00 in0.0 mm 0.03 in0.8 mm
10:05 AM 44.1°F6.7°C 44.1°F6.7°C 100% 1.4 mph NE2.3 kmh NE 3.8 mph6.1 kmh 30.13 in1020.3 mb 0.00 in0.0 mm 0.00 in0.0 mm 0.03 in0.8 mm
10:00 AM 44.1°F6.7°C 44.1°F6.7°C 100% 0.9 mph N1.4 kmh N 3.8 mph6.1 kmh 30.13 in1020.3 mb 0.00 in0.0 mm 0.00 in0.0 mm 0.03 in0.8 mm
09:55 AM 44.2°F6.8°C 44.2°F6.8°C 100% 0.7 mph WNW1.1 kmh WNW 3.1 mph5.0 kmh 30.13 in1020.3 mb 0.00 in0.0 mm 0.00 in0.0 mm 0.03 in0.8 mm
09:50 AM 44.2°F6.8°C 44.2°F6.8°C 100% 1.0 mph NW1.6 kmh NW 3.1 mph5.0 kmh 30.13 in1020.3 mb 0.00 in0.0 mm 0.00 in0.0 mm 0.03 in0.8 mm
09:45 AM 44.1°F6.7°C 44.1°F6.7°C 100% 1.4 mph W2.3 kmh W 3.1 mph5.0 kmh 30.13 in1020.3 mb 0.00 in0.0 mm 0.00 in0.0 mm 0.03 in0.8 mm
09:40 AM 44.1°F6.7°C 44.1°F6.7°C 100% 1.6 mph W2.6 kmh W 3.1 mph5.0 kmh 30.13 in1020.3 mb 0.00 in0.0 mm 0.00 in0.0 mm 0.03 in0.8 mm
09:35 AM 44.1°F6.7°C 44.1°F6.7°C 100% 1.0 mph NW1.6 kmh NW 3.1 mph5.0 kmh 30.13 in1020.3 mb 0.00 in0.0 mm 0.00 in0.0 mm 0.03 in0.8 mm
09:30 AM 44.1°F6.7°C 44.1°F6.7°C 100% 0.6 mph NNW1.0 kmh NNW 3.1 mph5.0 kmh 30.13 in1020.3 mb 0.00 in0.0 mm 0.00 in0.0 mm 0.03 in0.8 mm
09:25 AM 44.1°F6.7°C 44.1°F6.7°C 100% 0.7 mph NW1.1 kmh NW 3.1 mph5.0 kmh 30.13 in1020.3 mb 0.00 in0.0 mm 0.00 in0.0 mm 0.03 in0.8 mm
09:20 AM 43.9°F6.6°C 43.9°F6.6°C 100% 0.4 mph N0.6 kmh N 2.2 mph3.5 kmh 30.13 in1020.3 mb 0.00 in0.0 mm 0.00 in0.0 mm 0.03 in0.8 mm
09:15 AM 43.9°F6.6°C 43.9°F6.6°C 100% 0.5 mph WNW0.8 kmh WNW 2.2 mph3.5 kmh 30.13 in1020.3 mb 0.00 in0.0 mm 0.00 in0.0 mm 0.03 in0.8 mm
09:10 AM 43.9°F6.6°C 43.9°F6.6°C 100% 0.8 mph WSW1.3 kmh WSW 3.1 mph5.0 kmh 30.13 in1020.3 mb 0.00 in0.0 mm 0.00 in0.0 mm 0.03 in0.8 mm
09:00 AM 43.9°F6.6°C 43.9°F6.6°C 100% 1.1 mph NW1.8 kmh NW 3.8 mph6.1 kmh 30.13 in1020.3 mb 0.00 in0.0 mm 0.00 in0.0 mm 0.03 in0.8 mm
08:55 AM 43.9°F6.6°C 43.9°F6.6°C 100% 1.5 mph WSW2.4 kmh WSW 4.5 mph7.2 kmh 30.13 in1020.3 mb 0.00 in0.0 mm 0.00 in0.0 mm 0.03 in0.8 mm
08:50 AM 43.9°F6.6°C 43.9°F6.6°C 100% 1.2 mph WSW1.9 kmh WSW 4.5 mph7.2 kmh 30.13 in1020.3 mb 0.00 in0.0 mm 0.00 in0.0 mm 0.03 in0.8 mm
08:45 AM 44.1°F6.7°C 44.1°F6.7°C 100% 1.1 mph N1.8 kmh N 4.5 mph7.2 kmh 30.13 in1020.3 mb 0.00 in0.0 mm 0.00 in0.0 mm 0.03 in0.8 mm
08:35 AM 44.1°F6.7°C 44.1°F6.7°C 100% 0.8 mph SE1.3 kmh SE 3.1 mph5.0 kmh 30.12 in1020.0 mb 0.00 in0.0 mm 0.00 in0.0 mm 0.03 in0.8 mm
08:30 AM 44.1°F6.7°C 44.1°F6.7°C 100% 1.0 mph SW1.6 kmh SW 3.8 mph6.1 kmh 30.12 in1020.0 mb 0.00 in0.0 mm 0.00 in0.0 mm 0.03 in0.8 mm
08:20 AM 44.2°F6.8°C 44.2°F6.8°C 100% 1.1 mph SW1.8 kmh SW 4.5 mph7.2 kmh 30.12 in1020.0 mb 0.00 in0.0 mm 0.00 in0.0 mm 0.03 in0.8 mm
08:15 AM 44.2°F6.8°C 44.2°F6.8°C 100% 1.3 mph WSW2.1 kmh WSW 4.5 mph7.2 kmh 30.12 in1020.0 mb 0.00 in0.0 mm 0.00 in0.0 mm 0.03 in0.8 mm
08:05 AM 44.4°F6.9°C 44.4°F6.9°C 100% 0.8 mph N1.3 kmh N 3.8 mph6.1 kmh 30.12 in1020.0 mb 0.00 in0.0 mm 0.00 in0.0 mm 0.03 in0.8 mm
07:55 AM 44.6°F7.0°C 43.8°F6.6°C 97% 1.8 mph N2.9 kmh N 6.9 mph11.1 kmh 30.13 in1020.3 mb 0.00 in0.0 mm 0.00 in0.0 mm 0.03 in0.8 mm
07:50 AM 44.6°F7.0°C 43.8°F6.6°C 97% 3.3 mph NW5.3 kmh NW 8.3 mph13.4 kmh 30.13 in1020.3 mb 0.00 in0.0 mm 0.00 in0.0 mm 0.03 in0.8 mm
07:45 AM 44.6°F7.0°C 43.8°F6.6°C 97% 3.8 mph NW6.1 kmh NW 8.3 mph13.4 kmh 30.13 in1020.3 mb 0.00 in0.0 mm 0.00 in0.0 mm 0.03 in0.8 mm
07:40 AM 44.8°F7.1°C 44.0°F6.7°C 97% 3.3 mph NNW5.3 kmh NNW 8.3 mph13.4 kmh 30.13 in1020.3 mb 0.00 in0.0 mm 0.00 in0.0 mm 0.03 in0.8 mm
07:35 AM 44.8°F7.1°C 44.0°F6.7°C 97% 2.5 mph NNW4.0 kmh NNW 8.3 mph13.4 kmh 30.13 in1020.3 mb 0.00 in0.0 mm 0.00 in0.0 mm 0.03 in0.8 mm
07:30 AM 45.0°F7.2°C 44.2°F6.8°C 97% 2.4 mph NNW3.9 kmh NNW 6.0 mph9.7 kmh 30.13 in1020.3 mb 0.00 in0.0 mm 0.00 in0.0 mm 0.03 in0.8 mm
07:25 AM 45.0°F7.2°C 44.2°F6.8°C 97% 2.4 mph E3.9 kmh E 6.0 mph9.7 kmh 30.13 in1020.3 mb 0.00 in0.0 mm 0.00 in0.0 mm 0.03 in0.8 mm
07:20 AM 45.0°F7.2°C 44.2°F6.8°C 97% 2.4 mph N3.9 kmh N 7.6 mph12.2 kmh 30.13 in1020.3 mb 0.00 in0.0 mm 0.00 in0.0 mm 0.03 in0.8 mm
07:15 AM 45.1°F7.3°C 44.3°F6.8°C 97% 2.1 mph NW3.4 kmh NW 7.6 mph12.2 kmh 30.13 in1020.3 mb 0.00 in0.0 mm 0.00 in0.0 mm 0.03 in0.8 mm
07:10 AM 45.3°F7.4°C 44.5°F6.9°C 97% 1.7 mph NW2.7 kmh NW 5.4 mph8.7 kmh 30.13 in1020.3 mb 0.00 in0.0 mm 0.00 in0.0 mm 0.03 in0.8 mm
07:05 AM 45.3°F7.4°C 44.5°F6.9°C 97% 1.7 mph W2.7 kmh W 5.4 mph8.7 kmh 30.13 in1020.3 mb 0.00 in0.0 mm 0.00 in0.0 mm 0.03 in0.8 mm
07:00 AM 45.3°F7.4°C 44.5°F6.9°C 97% 1.6 mph SW2.6 kmh SW 5.4 mph8.7 kmh 30.13 in1020.3 mb 0.00 in0.0 mm 0.00 in0.0 mm 0.03 in0.8 mm
06:55 AM 45.3°F7.4°C 44.5°F6.9°C 97% 1.6 mph SW2.6 kmh SW 3.8 mph6.1 kmh 30.13 in1020.3 mb 0.00 in0.0 mm 0.00 in0.0 mm 0.03 in0.8 mm
06:50 AM 45.3°F7.4°C 44.5°F6.9°C 97% 1.4 mph SW2.3 kmh SW 3.8 mph6.1 kmh 30.13 in1020.3 mb 0.00 in0.0 mm 0.00 in0.0 mm 0.03 in0.8 mm
06:45 AM 45.3°F7.4°C 44.5°F6.9°C 97% 1.4 mph WSW2.3 kmh WSW 6.9 mph11.1 kmh 30.13 in1020.3 mb 0.00 in0.0 mm 0.00 in0.0 mm 0.03 in0.8 mm
06:40 AM 45.3°F7.4°C 44.5°F6.9°C 97% 1.3 mph NW2.1 kmh NW 6.9 mph11.1 kmh 30.13 in1020.3 mb 0.00 in0.0 mm 0.00 in0.0 mm 0.03 in0.8 mm
06:30 AM 45.5°F7.5°C 44.7°F7.1°C 97% 1.6 mph NNW2.6 kmh NNW 3.8 mph6.1 kmh 30.13 in1020.3 mb 0.00 in0.0 mm 0.00 in0.0 mm 0.03 in0.8 mm
06:25 AM 45.5°F7.5°C 44.7°F7.1°C 97% 2.0 mph NW3.2 kmh NW 6.0 mph9.7 kmh 30.13 in1020.3 mb 0.00 in0.0 mm 0.00 in0.0 mm 0.03 in0.8 mm
06:20 AM 45.5°F7.5°C 44.7°F7.1°C 97% 2.2 mph WNW3.5 kmh WNW 6.0 mph9.7 kmh 30.13 in1020.3 mb 0.00 in0.0 mm 0.00 in0.0 mm 0.03 in0.8 mm
06:15 AM 45.5°F7.5°C 44.7°F7.1°C 97% 2.0 mph WNW3.2 kmh WNW 6.0 mph9.7 kmh 30.13 in1020.3 mb 0.00 in0.0 mm 0.00 in0.0 mm 0.03 in0.8 mm
06:10 AM 45.5°F7.5°C 44.7°F7.1°C 97% 1.7 mph W2.7 kmh W 5.4 mph8.7 kmh 30.13 in1020.3 mb 0.00 in0.0 mm 0.00 in0.0 mm 0.03 in0.8 mm
06:05 AM 45.7°F7.6°C 44.9°F7.2°C 97% 1.9 mph WNW3.1 kmh WNW 9.8 mph15.8 kmh 30.13 in1020.3 mb 0.00 in0.0 mm 0.00 in0.0 mm 0.03 in0.8 mm
06:00 AM 45.7°F7.6°C 44.9°F7.2°C 97% 2.2 mph NW3.5 kmh NW 9.8 mph15.8 kmh 30.13 in1020.3 mb 0.00 in0.0 mm 0.00 in0.0 mm 0.03 in0.8 mm
05:55 AM 45.7°F7.6°C 44.9°F7.2°C 97% 2.6 mph W4.2 kmh W 6.0 mph9.7 kmh 30.13 in1020.3 mb 0.00 in0.0 mm 0.00 in0.0 mm 0.03 in0.8 mm
05:50 AM 45.7°F7.6°C 44.9°F7.2°C 97% 2.7 mph WSW4.3 kmh WSW 6.0 mph9.7 kmh 30.13 in1020.3 mb 0.00 in0.0 mm 0.00 in0.0 mm 0.03 in0.8 mm
05:45 AM 45.9°F7.7°C 45.1°F7.3°C 97% 2.4 mph WNW3.9 kmh WNW 8.3 mph13.4 kmh 30.13 in1020.3 mb 0.00 in0.0 mm 0.00 in0.0 mm 0.03 in0.8 mm
05:40 AM 46.0°F7.8°C 45.2°F7.3°C 97% 1.9 mph SW3.1 kmh SW 8.3 mph13.4 kmh 30.14 in1020.7 mb 0.00 in0.0 mm 0.00 in0.0 mm 0.03 in0.8 mm
05:35 AM 46.2°F7.9°C 45.4°F7.4°C 97% 1.3 mph SE2.1 kmh SE 3.8 mph6.1 kmh 30.13 in1020.3 mb 0.00 in0.0 mm 0.00 in0.0 mm 0.03 in0.8 mm
05:30 AM 46.2°F7.9°C 45.4°F7.4°C 97% 1.7 mph NNW2.7 kmh NNW 8.3 mph13.4 kmh 30.14 in1020.7 mb 0.00 in0.0 mm 0.00 in0.0 mm 0.03 in0.8 mm
05:25 AM 46.4°F8.0°C 46.1°F7.8°C 99% 3.3 mph N5.3 kmh N 9.8 mph15.8 kmh 30.14 in1020.7 mb 0.00 in0.0 mm 0.00 in0.0 mm 0.03 in0.8 mm
05:20 AM 46.6°F8.1°C 46.3°F7.9°C 99% 3.4 mph N5.5 kmh N 9.8 mph15.8 kmh 30.14 in1020.7 mb 0.00 in0.0 mm 0.00 in0.0 mm 0.03 in0.8 mm
05:15 AM 46.6°F8.1°C 46.3°F7.9°C 99% 1.8 mph N2.9 kmh N 4.5 mph7.2 kmh 30.14 in1020.7 mb 0.00 in0.0 mm 0.00 in0.0 mm 0.03 in0.8 mm
05:10 AM 46.6°F8.1°C 46.3°F7.9°C 99% 1.5 mph NE2.4 kmh NE 5.4 mph8.7 kmh 30.14 in1020.7 mb 0.00 in0.0 mm 0.00 in0.0 mm 0.03 in0.8 mm
05:05 AM 46.8°F8.2°C 46.5°F8.1°C 99% 2.0 mph N3.2 kmh N 5.4 mph8.7 kmh 30.14 in1020.7 mb 0.00 in0.0 mm 0.00 in0.0 mm 0.03 in0.8 mm
05:00 AM 46.8°F8.2°C 46.5°F8.1°C 99% 2.9 mph W4.7 kmh W 7.6 mph12.2 kmh 30.15 in1021.0 mb 0.00 in0.0 mm 0.00 in0.0 mm 0.03 in0.8 mm
04:55 AM 46.8°F8.2°C 46.5°F8.1°C 99% 3.1 mph W5.0 kmh W 7.6 mph12.2 kmh 30.15 in1021.0 mb 0.00 in0.0 mm 0.00 in0.0 mm 0.03 in0.8 mm
04:50 AM 46.9°F8.3°C 46.7°F8.2°C 99% 3.1 mph W5.0 kmh W 6.9 mph11.1 kmh 30.16 in1021.3 mb 0.00 in0.0 mm 0.00 in0.0 mm 0.03 in0.8 mm
04:45 AM 46.9°F8.3°C 46.7°F8.2°C 99% 3.8 mph W6.1 kmh W 7.6 mph12.2 kmh 30.16 in1021.3 mb 0.00 in0.0 mm 0.00 in0.0 mm 0.03 in0.8 mm
04:40 AM 46.9°F8.3°C 46.7°F8.2°C 99% 4.2 mph W6.8 kmh W 9.2 mph14.8 kmh 30.16 in1021.3 mb 0.00 in0.0 mm 0.00 in0.0 mm 0.03 in0.8 mm
04:35 AM 47.1°F8.4°C 46.9°F8.3°C 99% 4.0 mph NW6.4 kmh NW 9.2 mph14.8 kmh 30.16 in1021.3 mb 0.00 in0.0 mm 0.00 in0.0 mm 0.03 in0.8 mm
04:30 AM 47.1°F8.4°C 46.9°F8.3°C 99% 3.3 mph NW5.3 kmh NW 8.3 mph13.4 kmh 30.16 in1021.3 mb 0.00 in0.0 mm 0.00 in0.0 mm 0.03 in0.8 mm
04:25 AM 47.3°F8.5°C 47.0°F8.3°C 99% 2.4 mph NW3.9 kmh NW 8.3 mph13.4 kmh 30.17 in1021.7 mb 0.00 in0.0 mm 0.00 in0.0 mm 0.03 in0.8 mm
04:20 AM 47.5°F8.6°C 47.2°F8.4°C 99% 2.5 mph W4.0 kmh W 6.9 mph11.1 kmh 30.17 in1021.7 mb 0.00 in0.0 mm 0.00 in0.0 mm 0.03 in0.8 mm
04:10 AM 48.0°F8.9°C 47.8°F8.8°C 99% 4.5 mph SW7.2 kmh SW 6.0 mph9.7 kmh 30.18 in1022.0 mb 0.00 in0.0 mm 0.00 in0.0 mm 0.03 in0.8 mm
04:05 AM 48.0°F8.9°C 47.8°F8.8°C 99% 3.6 mph SW5.8 kmh SW 6.0 mph9.7 kmh 30.17 in1021.7 mb 0.00 in0.0 mm 0.00 in0.0 mm 0.03 in0.8 mm
04:00 AM 48.0°F8.9°C 47.8°F8.8°C 99% 3.2 mph NW5.1 kmh NW 7.6 mph12.2 kmh 30.18 in1022.0 mb 0.00 in0.0 mm 0.00 in0.0 mm 0.03 in0.8 mm
03:55 AM 48.0°F8.9°C 47.8°F8.8°C 99% 4.0 mph WNW6.4 kmh WNW 8.3 mph13.4 kmh 30.18 in1022.0 mb 0.00 in0.0 mm 0.00 in0.0 mm 0.03 in0.8 mm
03:50 AM 48.2°F9.0°C 47.9°F8.8°C 99% 4.7 mph W7.6 kmh W 9.8 mph15.8 kmh 30.19 in1022.4 mb 0.00 in0.0 mm 0.00 in0.0 mm 0.03 in0.8 mm
03:45 AM 48.4°F9.1°C 48.1°F8.9°C 99% 4.8 mph W7.7 kmh W 9.8 mph15.8 kmh 30.19 in1022.4 mb 0.00 in0.0 mm 0.00 in0.0 mm 0.03 in0.8 mm
03:40 AM 48.4°F9.1°C 48.1°F8.9°C 99% 4.6 mph W7.4 kmh W 9.2 mph14.8 kmh 30.19 in1022.4 mb 0.00 in0.0 mm 0.00 in0.0 mm 0.03 in0.8 mm
03:35 AM 48.6°F9.2°C 48.3°F9.1°C 99% 4.7 mph W7.6 kmh W 9.2 mph14.8 kmh 30.19 in1022.4 mb 0.00 in0.0 mm 0.00 in0.0 mm 0.03 in0.8 mm
03:30 AM 48.6°F9.2°C 48.3°F9.1°C 99% 4.4 mph WNW7.1 kmh WNW 9.8 mph15.8 kmh 30.19 in1022.4 mb 0.00 in0.0 mm 0.00 in0.0 mm 0.03 in0.8 mm
03:25 AM 48.7°F9.3°C 48.5°F9.2°C 99% 4.2 mph NW6.8 kmh NW 10.7 mph17.2 kmh 30.19 in1022.4 mb 0.00 in0.0 mm 0.00 in0.0 mm 0.03 in0.8 mm
03:20 AM 48.7°F9.3°C 48.5°F9.2°C 99% 4.9 mph NW7.9 kmh NW 14.5 mph23.3 kmh 30.19 in1022.4 mb 0.00 in0.0 mm 0.00 in0.0 mm 0.03 in0.8 mm
03:15 AM 48.9°F9.4°C 48.7°F9.3°C 99% 5.5 mph NNW8.9 kmh NNW 14.5 mph23.3 kmh 30.20 in1022.7 mb 0.00 in0.0 mm 0.00 in0.0 mm 0.03 in0.8 mm
03:10 AM 49.1°F9.5°C 48.8°F9.3°C 99% 5.6 mph NW9.0 kmh NW 14.5 mph23.3 kmh 30.20 in1022.7 mb 0.00 in0.0 mm 0.00 in0.0 mm 0.03 in0.8 mm
03:05 AM 49.1°F9.5°C 48.8°F9.3°C 99% 6.0 mph W9.7 kmh W 13.6 mph21.9 kmh 30.19 in1022.4 mb 0.00 in0.0 mm 0.00 in0.0 mm 0.03 in0.8 mm
03:00 AM 49.3°F9.6°C 49.0°F9.4°C 99% 5.6 mph NW9.0 kmh NW 13.6 mph21.9 kmh 30.19 in1022.4 mb 0.00 in0.0 mm 0.00 in0.0 mm 0.03 in0.8 mm
02:55 AM 49.5°F9.7°C 49.2°F9.6°C 99% 3.8 mph WNW6.1 kmh WNW 10.7 mph17.2 kmh 30.20 in1022.7 mb 0.00 in0.0 mm 0.00 in0.0 mm 0.03 in0.8 mm
02:50 AM 49.6°F9.8°C 49.4°F9.7°C 99% 3.0 mph W4.8 kmh W 10.7 mph17.2 kmh 30.19 in1022.4 mb 0.00 in0.0 mm 0.00 in0.0 mm 0.03 in0.8 mm
02:45 AM 49.6°F9.8°C 49.4°F9.7°C 99% 3.0 mph W4.8 kmh W 8.3 mph13.4 kmh 30.20 in1022.7 mb 0.00 in0.0 mm 0.00 in0.0 mm 0.03 in0.8 mm
02:40 AM 49.5°F9.7°C 49.2°F9.6°C 99% 3.1 mph W5.0 kmh W 8.3 mph13.4 kmh 30.20 in1022.7 mb 0.00 in0.0 mm 0.00 in0.0 mm 0.03 in0.8 mm
02:35 AM 49.6°F9.8°C 49.4°F9.7°C 99% 3.4 mph WNW5.5 kmh WNW 7.6 mph12.2 kmh 30.20 in1022.7 mb 0.00 in0.0 mm 0.00 in0.0 mm 0.03 in0.8 mm
02:30 AM 49.6°F9.8°C 49.4°F9.7°C 99% 3.6 mph W5.8 kmh W 9.2 mph14.8 kmh 30.20 in1022.7 mb 0.00 in0.0 mm 0.00 in0.0 mm 0.03 in0.8 mm
02:25 AM 49.8°F9.9°C 49.6°F9.8°C 99% 3.8 mph W6.1 kmh W 9.2 mph14.8 kmh 30.20 in1022.7 mb 0.00 in0.0 mm 0.00 in0.0 mm 0.03 in0.8 mm
02:20 AM 50.0°F10.0°C 49.7°F9.8°C 99% 4.5 mph WSW7.2 kmh WSW 11.4 mph18.3 kmh 30.20 in1022.7 mb 0.00 in0.0 mm 0.00 in0.0 mm 0.03 in0.8 mm
02:15 AM 50.2°F10.1°C 49.9°F9.9°C 99% 5.9 mph SW9.5 kmh SW 14.5 mph23.3 kmh 30.20 in1022.7 mb 0.00 in0.0 mm 0.00 in0.0 mm 0.03 in0.8 mm
02:10 AM 50.4°F10.2°C 50.1°F10.1°C 99% 4.5 mph W7.2 kmh W 14.5 mph23.3 kmh 30.20 in1022.7 mb 0.00 in0.0 mm 0.00 in0.0 mm 0.03 in0.8 mm
02:05 AM 50.7°F10.4°C 50.5°F10.3°C 99% 3.2 mph NW5.1 kmh NW 10.7 mph17.2 kmh 30.20 in1022.7 mb 0.00 in0.0 mm 0.00 in0.0 mm 0.03 in0.8 mm
02:00 AM 50.7°F10.4°C 50.5°F10.3°C 99% 4.1 mph W6.6 kmh W 10.7 mph17.2 kmh 30.21 in1023.0 mb 0.00 in0.0 mm 0.00 in0.0 mm 0.03 in0.8 mm
01:55 AM 50.7°F10.4°C 50.5°F10.3°C 99% 5.0 mph WNW8.0 kmh WNW 10.7 mph17.2 kmh 30.21 in1023.0 mb 0.00 in0.0 mm 0.00 in0.0 mm 0.03 in0.8 mm
01:50 AM 50.7°F10.4°C 50.5°F10.3°C 99% 5.3 mph NW8.5 kmh NW 10.7 mph17.2 kmh 30.21 in1023.0 mb 0.00 in0.0 mm 0.00 in0.0 mm 0.03 in0.8 mm
01:45 AM 50.9°F10.5°C 50.6°F10.3°C 99% 4.4 mph NW7.1 kmh NW 9.8 mph15.8 kmh 30.22 in1023.4 mb 0.00 in0.0 mm 0.00 in0.0 mm 0.03 in0.8 mm
01:40 AM 50.9°F10.5°C 50.6°F10.3°C 99% 4.4 mph WNW7.1 kmh WNW 10.7 mph17.2 kmh 30.23 in1023.7 mb 0.00 in0.0 mm 0.00 in0.0 mm 0.03 in0.8 mm
01:35 AM 50.9°F10.5°C 50.6°F10.3°C 99% 4.6 mph W7.4 kmh W 10.7 mph17.2 kmh 30.23 in1023.7 mb 0.00 in0.0 mm 0.00 in0.0 mm 0.03 in0.8 mm
01:30 AM 50.9°F10.5°C 50.6°F10.3°C 99% 4.9 mph W7.9 kmh W 13.6 mph21.9 kmh 30.23 in1023.7 mb 0.00 in0.0 mm 0.00 in0.0 mm 0.03 in0.8 mm
01:25 AM 50.9°F10.5°C 50.6°F10.3°C 99% 5.4 mph W8.7 kmh W 13.6 mph21.9 kmh 30.23 in1023.7 mb 0.00 in0.0 mm 0.00 in0.0 mm 0.03 in0.8 mm
01:15 AM 50.9°F10.5°C 50.6°F10.3°C 99% 4.9 mph W7.9 kmh W 10.7 mph17.2 kmh 30.23 in1023.7 mb 0.00 in0.0 mm 0.00 in0.0 mm 0.03 in0.8 mm
01:10 AM 51.1°F10.6°C 50.8°F10.4°C 99% 4.6 mph WNW7.4 kmh WNW 10.7 mph17.2 kmh 30.24 in1024.0 mb 0.03 in0.8 mm 0.00 in0.0 mm 0.03 in0.8 mm
01:05 AM 51.1°F10.6°C 50.8°F10.4°C 99% 4.0 mph W6.4 kmh W 9.8 mph15.8 kmh 30.24 in1024.0 mb 0.03 in0.8 mm 0.00 in0.0 mm 0.03 in0.8 mm
01:00 AM 51.1°F10.6°C 50.8°F10.4°C 99% 4.3 mph WNW6.9 kmh WNW 11.4 mph18.3 kmh 30.24 in1024.0 mb 0.03 in0.8 mm 0.00 in0.0 mm 0.03 in0.8 mm
12:55 AM 51.1°F10.6°C 50.8°F10.4°C 99% 5.2 mph WNW8.4 kmh WNW 11.4 mph18.3 kmh 30.25 in1024.4 mb 0.03 in0.8 mm 0.00 in0.0 mm 0.28 in7.1 mm
12:50 AM 51.3°F10.7°C 51.0°F10.6°C 99% 6.2 mph WNW10.0 kmh WNW 14.5 mph23.3 kmh 30.25 in1024.4 mb 0.03 in0.8 mm 0.00 in0.0 mm 0.28 in7.1 mm
12:45 AM 51.3°F10.7°C 51.0°F10.6°C 99% 6.9 mph WNW11.1 kmh WNW 14.5 mph23.3 kmh 30.25 in1024.4 mb 0.03 in0.8 mm 0.00 in0.0 mm 0.28 in7.1 mm
12:40 AM 51.4°F10.8°C 51.2°F10.7°C 99% 7.4 mph NW11.9 kmh NW 15.2 mph24.5 kmh 30.25 in1024.4 mb 0.03 in0.8 mm 0.00 in0.0 mm 0.28 in7.1 mm
12:35 AM 51.6°F10.9°C 51.4°F10.8°C 99% 7.6 mph NW12.2 kmh NW 19.7 mph31.7 kmh 30.25 in1024.4 mb 0.03 in0.8 mm 0.00 in0.0 mm 0.28 in7.1 mm
12:30 AM 51.6°F10.9°C 51.4°F10.8°C 99% 6.4 mph W10.3 kmh W 19.7 mph31.7 kmh 30.25 in1024.4 mb 0.03 in0.8 mm 0.00 in0.0 mm 0.28 in7.1 mm
12:25 AM 52.0°F11.1°C 52.0°F11.1°C 100% 5.4 mph N8.7 kmh N 16.8 mph27.0 kmh 30.25 in1024.4 mb 0.03 in0.8 mm 0.00 in0.0 mm 0.28 in7.1 mm
12:20 AM 52.2°F11.2°C 52.2°F11.2°C 100% 4.9 mph NW7.9 kmh NW 15.2 mph24.5 kmh 30.25 in1024.4 mb 0.03 in0.8 mm 0.00 in0.0 mm 0.28 in7.1 mm
12:15 AM 52.5°F11.4°C 52.5°F11.4°C 100% 4.7 mph WNW7.6 kmh WNW 11.4 mph18.3 kmh 30.25 in1024.4 mb 0.03 in0.8 mm 0.36 in9.1 mm 0.28 in7.1 mm
12:10 AM 52.7°F11.5°C 52.7°F11.5°C 100% 5.3 mph NW8.5 kmh NW 11.4 mph18.3 kmh 30.25 in1024.4 mb 0.00 in0.0 mm 0.00 in0.0 mm 0.26 in6.6 mm
12:05 AM 52.9°F11.6°C 52.9°F11.6°C 100% 6.0 mph NW9.7 kmh NW 11.4 mph18.3 kmh 30.25 in1024.4 mb 0.00 in0.0 mm 0.00 in0.0 mm 0.26 in6.6 mm
12:00 AM 52.9°F11.6°C 52.9°F11.6°C 100% 5.7 mph NW9.2 kmh NW 13.6 mph21.9 kmh 30.25 in1024.4 mb 0.00 in0.0 mm 0.00 in0.0 mm 0.26 in6.6 mm